createdAt,value
2018-12-04T00:00:59.206Z,94991.97
2018-12-04T00:03:29.496Z,94991.54
2018-12-04T00:06:00.187Z,94988.15
2018-12-04T00:08:30.767Z,94993.04
2018-12-04T00:11:01.043Z,94992.95
2018-12-04T00:13:31.533Z,94988.66
2018-12-04T00:16:02.121Z,94993.73
2018-12-04T00:18:33.785Z,94995.95
2018-12-04T00:21:04.344Z,94995.13
2018-12-04T00:23:35.040Z,94998.70
2018-12-04T00:26:05.846Z,94997.78
2018-12-04T00:28:36.537Z,94996.05
2018-12-04T00:31:06.996Z,94990.20
2018-12-04T00:33:37.540Z,94984.91
2018-12-04T00:36:07.895Z,94983.49
2018-12-04T00:38:38.289Z,94982.77
2018-12-04T00:41:08.626Z,94976.97
2018-12-04T00:43:39.071Z,94978.63
2018-12-04T00:46:10.088Z,94975.66
2018-12-04T00:48:40.493Z,94982.14
2018-12-04T00:51:10.917Z,94973.47
2018-12-04T00:53:41.303Z,94975.16
2018-12-04T00:56:12.099Z,94970.28
2018-12-04T00:58:42.380Z,94971.91
2018-12-04T01:01:12.758Z,94964.94
2018-12-04T01:03:43.088Z,94961.11
2018-12-04T01:06:13.728Z,94956.55
2018-12-04T01:08:44.036Z,94949.48
2018-12-04T01:11:14.653Z,94954.91
2018-12-04T01:13:45.312Z,94947.37
2018-12-04T01:16:16.036Z,94934.16
2018-12-04T01:18:46.362Z,94940.30
2018-12-04T01:21:17.093Z,94943.59
2018-12-04T01:23:47.632Z,94939.70
2018-12-04T01:26:18.252Z,94938.84
2018-12-04T01:28:48.900Z,94935.79
2018-12-04T01:31:19.496Z,94932.64
2018-12-04T01:33:50.191Z,94935.48
2018-12-04T01:36:20.872Z,94936.84
2018-12-04T01:38:51.501Z,94939.25
2018-12-04T01:41:23.247Z,94938.44
2018-12-04T01:43:53.815Z,94933.37
2018-12-04T01:46:24.509Z,94926.63
2018-12-04T01:48:55.083Z,94927.63
2018-12-04T01:51:25.598Z,94927.13
2018-12-04T01:53:56.235Z,94925.39
2018-12-04T01:56:26.845Z,94922.80
2018-12-04T01:58:57.299Z,94917.99
2018-12-04T02:01:27.735Z,94917.91
2018-12-04T02:04:00.118Z,94912.62
2018-12-04T02:06:30.589Z,94926.36
2018-12-04T02:09:01.353Z,94927.86
2018-12-04T02:11:33.854Z,94927.41
2018-12-04T02:14:04.636Z,94926.31
2018-12-04T02:16:35.263Z,94925.68
2018-12-04T02:19:06.000Z,94929.52
2018-12-04T02:21:36.637Z,94929.09
2018-12-04T02:24:07.222Z,94931.19
2018-12-04T02:26:37.805Z,94924.39
2018-12-04T02:29:08.464Z,94922.89
2018-12-04T02:31:39.138Z,94921.52
2018-12-04T02:34:09.821Z,94922.66
2018-12-04T02:36:40.513Z,94925.81
2018-12-04T02:39:11.149Z,94924.76
2018-12-04T02:41:41.880Z,94923.42
2018-12-04T02:44:12.552Z,94924.84
2018-12-04T02:46:43.157Z,94919.88
2018-12-04T02:49:13.707Z,94914.82
2018-12-04T02:51:44.110Z,94918.59
2018-12-04T02:54:14.767Z,94909.26
2018-12-04T02:56:46.238Z,94909.22
2018-12-04T02:59:16.679Z,94902.47
2018-12-04T03:01:47.076Z,94910.13
2018-12-04T03:04:17.443Z,94904.96
2018-12-04T03:06:47.929Z,94913.45
2018-12-04T03:09:18.294Z,94910.30
2018-12-04T03:11:48.828Z,94907.80
2018-12-04T03:14:19.539Z,94905.33
2018-12-04T03:16:50.107Z,94910.13
2018-12-04T03:19:20.798Z,94904.28
2018-12-04T03:21:51.475Z,94905.92
2018-12-04T03:24:22.180Z,94908.75
2018-12-04T03:26:52.787Z,94904.79
2018-12-04T03:29:23.399Z,94902.64
2018-12-04T03:31:53.983Z,94907.52
2018-12-04T03:34:24.771Z,94908.11
2018-12-04T03:36:55.369Z,94908.53
2018-12-04T03:39:26.105Z,94904.19
2018-12-04T03:41:56.874Z,94902.97
2018-12-04T03:44:27.516Z,94909.30
2018-12-04T03:46:57.998Z,94902.87
2018-12-04T03:49:28.960Z,94905.09
2018-12-04T03:51:59.541Z,94900.13
2018-12-04T03:54:29.947Z,94908.24
2018-12-04T03:57:00.870Z,94907.56
2018-12-04T03:59:31.480Z,94906.52
2018-12-04T04:02:02.007Z,94906.42
2018-12-04T04:04:32.789Z,94910.33
2018-12-04T04:07:03.558Z,94906.69
2018-12-04T04:09:34.119Z,94908.09
2018-12-04T04:12:06.443Z,94903.12
2018-12-04T04:14:37.138Z,94899.44
2018-12-04T04:17:07.630Z,94902.35
2018-12-04T04:19:38.317Z,94909.05
2018-12-04T04:22:08.997Z,94906.06
2018-12-04T04:24:39.547Z,94908.72
2018-12-04T04:27:10.256Z,94910.91
2018-12-04T04:29:40.845Z,94906.27
2018-12-04T04:32:11.410Z,94904.67
2018-12-04T04:34:42.173Z,94912.34
2018-12-04T04:37:12.703Z,94909.65
2018-12-04T04:39:43.331Z,94908.55
2018-12-04T04:42:14.065Z,94914.93
2018-12-04T04:44:44.409Z,94915.33
2018-12-04T04:47:14.893Z,94910.59
2018-12-04T04:49:45.378Z,94921.17
2018-12-04T04:52:16.182Z,94905.14
2018-12-04T04:54:46.821Z,94912.81
2018-12-04T04:57:17.602Z,94900.61
2018-12-04T04:59:48.226Z,94901.02
2018-12-04T05:02:21.028Z,94899.46
2018-12-04T05:04:52.145Z,94903.57
2018-12-04T05:07:22.813Z,94902.53
2018-12-04T05:09:53.607Z,94899.00
2018-12-04T05:12:24.252Z,94899.25
2018-12-04T05:14:54.894Z,94900.38
2018-12-04T05:17:25.545Z,94891.91
2018-12-04T05:19:56.195Z,94896.11
2018-12-04T05:22:26.473Z,94897.88
2018-12-04T05:24:57.215Z,94897.52
2018-12-04T05:27:27.852Z,94894.69
2018-12-04T05:29:58.282Z,94899.83
2018-12-04T05:32:28.810Z,94899.70
2018-12-04T05:34:59.499Z,94898.21
2018-12-04T05:37:30.176Z,94896.59
2018-12-04T05:40:00.871Z,94897.39
2018-12-04T05:42:31.538Z,94894.72
2018-12-04T05:45:02.163Z,94896.81
2018-12-04T05:47:32.943Z,94893.22
2018-12-04T05:50:03.588Z,94898.89
2018-12-04T05:52:34.185Z,94903.59
2018-12-04T05:55:04.772Z,94903.63
2018-12-04T05:57:35.441Z,94904.45
2018-12-04T06:00:09.342Z,94909.84
2018-12-04T06:02:40.059Z,94905.64
2018-12-04T06:05:10.978Z,94911.21
2018-12-04T06:07:41.657Z,94908.93
2018-12-04T06:10:12.394Z,94914.59
2018-12-04T06:12:44.133Z,94911.30
2018-12-04T06:15:15.484Z,94917.23
2018-12-04T06:17:46.219Z,94923.08
2018-12-04T06:20:17.272Z,94923.23
2018-12-04T06:22:48.007Z,94924.48
2018-12-04T06:25:18.649Z,94925.40
2018-12-04T06:27:49.368Z,94930.88
2018-12-04T06:30:20.130Z,94933.80
2018-12-04T06:32:50.860Z,94931.23
2018-12-04T06:35:22.474Z,94933.67
2018-12-04T06:37:53.161Z,94930.91
2018-12-04T06:40:23.573Z,94933.16
2018-12-04T06:42:54.200Z,94934.01
2018-12-04T06:45:24.744Z,94936.14
2018-12-04T06:47:55.264Z,94935.44
2018-12-04T06:50:25.908Z,94937.54
2018-12-04T06:52:56.598Z,94937.97
2018-12-04T06:55:26.982Z,94942.38
2018-12-04T06:57:59.294Z,94934.86
2018-12-04T07:00:29.924Z,94936.27
2018-12-04T07:03:00.322Z,94934.47
2018-12-04T07:05:32.024Z,94934.64
2018-12-04T07:08:02.944Z,94933.33
2018-12-04T07:10:33.738Z,94937.44
2018-12-04T07:13:04.407Z,94936.33
2018-12-04T07:15:35.089Z,94929.72
2018-12-04T07:18:05.789Z,94927.46
2018-12-04T07:20:36.573Z,94931.22
2018-12-04T07:23:07.546Z,94933.00
2018-12-04T07:25:38.251Z,94926.66
2018-12-04T07:28:09.226Z,94934.40
2018-12-04T07:30:39.944Z,94935.77
2018-12-04T07:33:10.703Z,94940.02
2018-12-04T07:35:41.346Z,94938.45
2018-12-04T07:38:12.025Z,94933.48
2018-12-04T07:40:43.512Z,94937.12
2018-12-04T07:43:14.643Z,94942.44
2018-12-04T07:45:45.336Z,94942.72
2018-12-04T07:48:15.900Z,94945.50
2018-12-04T07:50:46.574Z,94950.45
2018-12-04T07:53:17.377Z,94945.60
2018-12-04T07:55:48.083Z,94946.41
2018-12-04T07:58:18.666Z,94941.59
2018-12-04T08:00:49.355Z,94948.00
2018-12-04T08:03:19.823Z,94948.86
2018-12-04T08:05:50.516Z,94944.66
2018-12-04T08:08:21.205Z,94935.14
2018-12-04T08:10:51.721Z,94935.53
2018-12-04T08:13:22.144Z,94934.05
2018-12-04T08:15:53.842Z,94936.05
2018-12-04T08:18:24.504Z,94939.83
2018-12-04T08:20:55.933Z,94940.66
2018-12-04T08:23:26.431Z,94937.37
2018-12-04T08:25:57.077Z,94942.38
2018-12-04T08:28:27.515Z,94937.73
2018-12-04T08:30:58.136Z,94936.89
2018-12-04T08:33:28.888Z,94937.35
2018-12-04T08:35:59.800Z,94936.80
2018-12-04T08:38:30.483Z,94938.36
2018-12-04T08:41:01.190Z,94937.44
2018-12-04T08:43:32.993Z,94935.71
2018-12-04T08:46:03.791Z,94936.55
2018-12-04T08:48:34.353Z,94933.97
2018-12-04T08:51:05.071Z,94930.75
2018-12-04T08:53:35.732Z,94924.05
2018-12-04T08:56:06.629Z,94919.41
2018-12-04T08:58:37.179Z,94923.42
2018-12-04T09:01:07.603Z,94918.13
2018-12-04T09:03:38.543Z,94917.00
2018-12-04T09:06:12.243Z,94916.63
2018-12-04T09:08:42.901Z,94914.25
2018-12-04T09:11:14.064Z,94916.41
2018-12-04T09:13:44.738Z,94913.70
2018-12-04T09:16:15.973Z,94913.12
2018-12-04T09:18:46.857Z,94909.53
2018-12-04T09:21:17.846Z,94904.72
2018-12-04T09:23:48.744Z,94907.92
2018-12-04T09:26:19.528Z,94904.56
2018-12-04T09:28:50.496Z,94897.71
2018-12-04T09:31:21.673Z,94900.28
2018-12-04T09:33:52.519Z,94894.94
2018-12-04T09:36:23.351Z,94890.62
2018-12-04T09:38:54.174Z,94885.17
2018-12-04T09:41:25.095Z,94880.25
2018-12-04T09:43:55.742Z,94881.21
2018-12-04T09:46:26.321Z,94872.12
2018-12-04T09:48:57.026Z,94873.36
2018-12-04T09:51:27.863Z,94871.64
2018-12-04T09:53:58.470Z,94868.05
2018-12-04T09:56:28.828Z,94873.23
2018-12-04T09:58:59.322Z,94871.80
2018-12-04T10:01:29.681Z,94864.44
2018-12-04T10:04:00.066Z,94856.55
2018-12-04T10:06:30.824Z,94854.30
2018-12-04T10:09:01.510Z,94846.80
2018-12-04T10:11:33.799Z,94845.59
2018-12-04T10:14:04.650Z,94845.23
2018-12-04T10:16:35.433Z,94840.58
2018-12-04T10:19:05.961Z,94841.23
2018-12-04T10:21:36.789Z,94834.05
2018-12-04T10:24:07.856Z,94831.64
2018-12-04T10:26:38.848Z,94833.23
2018-12-04T10:29:09.653Z,94830.87
2018-12-04T10:31:40.582Z,94834.26
2018-12-04T10:34:11.221Z,94830.69
2018-12-04T10:36:41.805Z,94826.67
2018-12-04T10:39:12.910Z,94825.30
2018-12-04T10:41:43.715Z,94818.58
2018-12-04T10:44:14.247Z,94822.59
2018-12-04T10:46:44.925Z,94817.69
2018-12-04T10:49:15.559Z,94816.13
2018-12-04T10:51:46.379Z,94810.70
2018-12-04T10:54:16.963Z,94813.43
2018-12-04T10:56:47.599Z,94817.48
2018-12-04T10:59:18.172Z,94814.62
2018-12-04T11:01:54.351Z,94814.87
2018-12-04T11:04:25.125Z,94815.62
2018-12-04T11:06:55.612Z,94814.33
2018-12-04T11:09:26.001Z,94812.14
2018-12-04T11:11:56.410Z,94817.65
2018-12-04T11:14:26.701Z,94813.33
2018-12-04T11:16:57.011Z,94814.88
2018-12-04T11:19:27.581Z,94817.92
2018-12-04T11:21:58.419Z,94818.55
2018-12-04T11:24:28.939Z,94819.95
2018-12-04T11:27:00.500Z,94813.29
2018-12-04T11:29:31.228Z,94810.98
2018-12-04T11:32:01.956Z,94807.28
2018-12-04T11:34:32.628Z,94811.56
2018-12-04T11:37:02.920Z,94815.94
2018-12-04T11:39:33.563Z,94811.61
2018-12-04T11:42:03.932Z,94808.64
2018-12-04T11:44:34.565Z,94803.43
2018-12-04T11:47:05.178Z,94801.56
2018-12-04T11:49:36.966Z,94800.55
2018-12-04T11:52:07.956Z,94796.61
2018-12-04T11:54:38.844Z,94794.43
2018-12-04T11:57:09.574Z,94790.26
2018-12-04T11:59:40.401Z,94793.68
2018-12-04T12:02:12.428Z,94791.14
2018-12-04T12:04:43.057Z,94795.12
2018-12-04T12:07:20.520Z,94785.21
2018-12-04T12:09:48.524Z,94785.56
2018-12-04T12:12:19.239Z,94788.02
2018-12-04T12:14:49.858Z,94786.97
2018-12-04T12:17:20.842Z,94784.57
2018-12-04T12:19:51.537Z,94788.58
2018-12-04T12:22:22.156Z,94793.72
2018-12-04T12:24:53.542Z,94793.69
2018-12-04T12:27:24.278Z,94784.02
2018-12-04T12:29:54.941Z,94788.43
2018-12-04T12:32:25.555Z,94789.13
2018-12-04T12:34:56.299Z,94790.30
2018-12-04T12:37:26.894Z,94792.55
2018-12-04T12:39:57.584Z,94797.27
2018-12-04T12:42:28.255Z,94802.00
2018-12-04T12:44:58.646Z,94803.16
2018-12-04T12:47:29.217Z,94802.55
2018-12-04T12:49:59.800Z,94804.07
2018-12-04T12:52:30.399Z,94800.21
2018-12-04T12:55:01.105Z,94797.49
2018-12-04T12:57:31.740Z,94798.28
2018-12-04T13:00:02.385Z,94796.06
2018-12-04T13:02:34.029Z,94801.67
2018-12-04T13:05:05.598Z,94796.64
2018-12-04T13:07:36.002Z,94791.36
2018-12-04T13:10:08.599Z,94796.50
2018-12-04T13:12:39.234Z,94799.72
2018-12-04T13:15:10.295Z,94801.15
2018-12-04T13:17:40.896Z,94796.35
2018-12-04T13:20:11.853Z,94797.41
2018-12-04T13:22:42.571Z,94792.87
2018-12-04T13:25:13.209Z,94795.56
2018-12-04T13:27:43.819Z,94796.84
2018-12-04T13:30:14.583Z,94795.61
2018-12-04T13:32:45.350Z,94803.33
2018-12-04T13:35:15.958Z,94797.45
2018-12-04T13:37:46.675Z,94803.44
2018-12-04T13:40:17.344Z,94803.58
2018-12-04T13:42:48.529Z,94805.36
2018-12-04T13:45:19.131Z,94813.73
2018-12-04T13:47:49.735Z,94809.67
2018-12-04T13:50:21.480Z,94810.47
2018-12-04T13:52:52.102Z,94805.17
2018-12-04T13:55:22.758Z,94805.41
2018-12-04T13:57:53.387Z,94807.70
2018-12-04T14:00:24.136Z,94807.98
2018-12-04T14:02:54.692Z,94818.52
2018-12-04T14:05:25.587Z,94822.78
2018-12-04T14:07:56.045Z,94819.95
2018-12-04T14:10:26.827Z,94821.09
2018-12-04T14:12:57.475Z,94817.52
2018-12-04T14:15:28.016Z,94824.31
2018-12-04T14:17:58.692Z,94821.55
2018-12-04T14:20:29.408Z,94821.44
2018-12-04T14:23:00.884Z,94815.68
2018-12-04T14:25:33.387Z,94818.48
2018-12-04T14:28:04.391Z,94815.80
2018-12-04T14:30:35.366Z,94823.02
2018-12-04T14:33:05.835Z,94817.29
2018-12-04T14:35:36.702Z,94817.48
2018-12-04T14:38:07.262Z,94812.36
2018-12-04T14:40:38.205Z,94812.05
2018-12-04T14:43:08.681Z,94803.28
2018-12-04T14:45:39.376Z,94807.78
2018-12-04T14:48:10.037Z,94808.08
2018-12-04T14:50:40.647Z,94808.38
2018-12-04T14:53:11.374Z,94814.10
2018-12-04T14:55:42.144Z,94812.96
2018-12-04T14:58:12.718Z,94817.34
2018-12-04T15:00:43.398Z,94819.01
2018-12-04T15:03:15.233Z,94813.30
2018-12-04T15:05:46.044Z,94817.44
2018-12-04T15:08:17.113Z,94811.80
2018-12-04T15:10:47.648Z,94814.80
2018-12-04T15:13:18.502Z,94818.31
2018-12-04T15:15:49.585Z,94823.63
2018-12-04T15:18:20.566Z,94822.00
2018-12-04T15:20:51.453Z,94823.92
2018-12-04T15:23:22.145Z,94832.30
2018-12-04T15:25:53.363Z,94830.69
2018-12-04T15:28:24.246Z,94826.21
2018-12-04T15:31:03.530Z,94831.80
2018-12-04T15:33:34.501Z,94828.17
2018-12-04T15:36:05.210Z,94827.70
2018-12-04T15:38:35.714Z,94838.47
2018-12-04T15:41:06.558Z,94837.38
2018-12-04T15:43:37.105Z,94831.67
2018-12-04T15:46:08.036Z,94837.23
2018-12-04T15:48:38.529Z,94836.33
2018-12-04T15:51:09.185Z,94839.98
2018-12-04T15:53:39.735Z,94843.26
2018-12-04T15:56:10.346Z,94848.17
2018-12-04T15:58:40.668Z,94849.72
2018-12-04T16:01:11.083Z,94855.34
2018-12-04T16:03:42.291Z,94854.23
2018-12-04T16:06:12.741Z,94849.84
2018-12-04T16:08:43.367Z,94857.68
2018-12-04T16:11:13.799Z,94850.86
2018-12-04T16:13:44.642Z,94847.64
2018-12-04T16:16:15.152Z,94852.85
2018-12-04T16:18:45.696Z,94847.97
2018-12-04T16:21:16.300Z,94849.23
2018-12-04T16:23:46.992Z,94847.94
2018-12-04T16:26:17.844Z,94858.61
2018-12-04T16:28:48.130Z,94856.45
2018-12-04T16:31:18.909Z,94854.73
2018-12-04T16:33:49.660Z,94852.79
2018-12-04T16:36:20.464Z,94861.52
2018-12-04T16:38:51.114Z,94860.17
2018-12-04T16:41:21.544Z,94862.45
2018-12-04T16:43:52.199Z,94866.69
2018-12-04T16:46:23.663Z,94858.58
2018-12-04T16:48:54.297Z,94857.88
2018-12-04T16:51:24.913Z,94872.16
2018-12-04T16:53:56.644Z,94869.40
2018-12-04T16:56:28.992Z,94859.50
2018-12-04T16:58:59.583Z,94863.27
2018-12-04T17:01:29.943Z,94856.66
2018-12-04T17:04:00.267Z,94856.69
2018-12-04T17:06:30.889Z,94862.59
2018-12-04T17:09:01.231Z,94862.83
2018-12-04T17:11:33.820Z,94866.05
2018-12-04T17:14:04.493Z,94869.97
2018-12-04T17:16:35.453Z,94871.69
2018-12-04T17:19:06.128Z,94866.83
2018-12-04T17:21:36.856Z,94873.97
2018-12-04T17:24:07.584Z,94869.58
2018-12-04T17:26:38.471Z,94874.38
2018-12-04T17:29:09.177Z,94879.91
2018-12-04T17:31:39.912Z,94878.77
2018-12-04T17:34:10.472Z,94884.06
2018-12-04T17:36:41.151Z,94892.41
2018-12-04T17:39:11.455Z,94890.03
2018-12-04T17:41:43.478Z,94890.68
2018-12-04T17:44:13.873Z,94889.94
2018-12-04T17:46:44.224Z,94897.32
2018-12-04T17:49:14.559Z,94895.83
2018-12-04T17:51:45.907Z,94909.20
2018-12-04T17:54:16.346Z,94916.55
2018-12-04T17:56:48.555Z,94918.59
2018-12-04T17:59:18.944Z,94915.59
2018-12-04T18:01:49.756Z,94921.31
2018-12-04T18:04:20.045Z,94914.70
2018-12-04T18:06:52.267Z,94919.66
2018-12-04T18:09:22.648Z,94918.39
2018-12-04T18:11:54.783Z,94911.89
2018-12-04T18:14:27.206Z,94920.20
2018-12-04T18:16:57.794Z,94923.53
2018-12-04T18:19:28.105Z,94925.70
2018-12-04T18:21:58.612Z,94935.02
2018-12-04T18:24:29.003Z,94937.15
2018-12-04T18:26:59.421Z,94929.89
2018-12-04T18:29:29.817Z,94933.26
2018-12-04T18:32:00.579Z,94926.64
2018-12-04T18:34:30.942Z,94933.70
2018-12-04T18:37:01.338Z,94938.79
2018-12-04T18:39:31.684Z,94942.56
2018-12-04T18:42:02.635Z,94945.73
2018-12-04T18:44:33.113Z,94939.73
2018-12-04T18:47:03.637Z,94940.05
2018-12-04T18:49:33.979Z,94937.18
2018-12-04T18:52:04.412Z,94943.91
2018-12-04T18:54:34.805Z,94946.02
2018-12-04T18:57:05.495Z,94936.81
2018-12-04T18:59:35.781Z,94940.42
2018-12-04T19:02:06.563Z,94942.50
2018-12-04T19:04:36.972Z,94948.06
2018-12-04T19:07:07.408Z,94945.27
2018-12-04T19:09:37.774Z,94942.89
2018-12-04T19:12:08.291Z,94938.14
2018-12-04T19:14:38.624Z,94942.24
2018-12-04T19:17:08.931Z,94946.48
2018-12-04T19:19:39.216Z,94947.92
2018-12-04T19:22:09.566Z,94943.72
2018-12-04T19:24:39.979Z,94948.85
2018-12-04T19:27:11.284Z,94951.25
2018-12-04T19:29:41.836Z,94951.97
2018-12-04T19:32:12.115Z,94951.15
2018-12-04T19:34:42.656Z,94949.32
2018-12-04T19:37:12.963Z,94948.50
2018-12-04T19:39:43.278Z,94951.55
2018-12-04T19:42:13.741Z,94946.84
2018-12-04T19:44:44.113Z,94944.73
2018-12-04T19:47:14.425Z,94951.41
2018-12-04T19:49:44.813Z,94954.83
2018-12-04T19:52:15.123Z,94951.00
2018-12-04T19:54:45.496Z,94956.12
2018-12-04T19:57:15.837Z,94948.42
2018-12-04T19:59:46.196Z,94948.02
2018-12-04T20:02:16.621Z,94954.09
2018-12-04T20:04:47.035Z,94954.70
2018-12-04T20:07:17.931Z,94950.02
2018-12-04T20:09:48.408Z,94950.12
2018-12-04T20:12:18.791Z,94958.88
2018-12-04T20:14:49.146Z,94969.61
2018-12-04T20:17:19.518Z,94977.08
2018-12-04T20:19:49.938Z,94973.01
2018-12-04T20:22:20.289Z,94978.28
2018-12-04T20:24:50.631Z,94977.52
2018-12-04T20:27:20.976Z,94976.58
2018-12-04T20:29:51.294Z,94968.97
2018-12-04T20:32:21.820Z,94966.07
2018-12-04T20:34:52.114Z,94963.58
2018-12-04T20:37:22.615Z,94955.89
2018-12-04T20:39:52.913Z,94961.19
2018-12-04T20:42:23.659Z,94973.18
2018-12-04T20:44:54.267Z,94970.61
2018-12-04T20:47:24.579Z,94974.15
2018-12-04T20:49:54.904Z,94977.31
2018-12-04T20:52:25.269Z,94979.45
2018-12-04T20:54:55.563Z,94980.17
2018-12-04T20:57:25.852Z,94986.81
2018-12-04T20:59:56.142Z,94985.48
2018-12-04T21:02:26.516Z,94985.32
2018-12-04T21:04:56.876Z,94983.69
2018-12-04T21:07:27.232Z,94984.93
2018-12-04T21:09:57.544Z,94989.50
2018-12-04T21:12:28.701Z,94990.55
2018-12-04T21:14:59.037Z,94991.45
2018-12-04T21:17:29.347Z,94996.02
2018-12-04T21:19:59.706Z,94991.25
2018-12-04T21:22:30.042Z,95002.48
2018-12-04T21:25:00.404Z,95006.08
2018-12-04T21:27:35.931Z,95004.23
2018-12-04T21:30:12.528Z,95008.14
2018-12-04T21:32:47.810Z,95017.73
2018-12-04T21:35:23.144Z,95024.13
2018-12-04T21:37:58.348Z,95019.65
2018-12-04T21:40:33.737Z,95024.98
2018-12-04T21:43:09.154Z,95026.57
2018-12-04T21:45:44.593Z,95021.50
2018-12-04T21:48:15.571Z,95020.59
2018-12-04T21:50:45.984Z,95026.16
2018-12-04T21:53:16.364Z,95023.96
2018-12-04T21:55:46.772Z,95024.52
2018-12-04T21:58:17.147Z,95029.11
2018-12-04T22:00:48.223Z,95032.83
2018-12-04T22:03:18.734Z,95031.36
2018-12-04T22:05:49.153Z,95031.91
2018-12-04T22:08:19.960Z,95036.55
2018-12-04T22:10:50.312Z,95031.47
2018-12-04T22:13:20.608Z,95029.91
2018-12-04T22:15:50.994Z,95032.05
2018-12-04T22:18:21.332Z,95037.78
2018-12-04T22:20:51.720Z,95037.02
2018-12-04T22:23:22.071Z,95047.56
2018-12-04T22:25:52.420Z,95037.02
2018-12-04T22:28:22.719Z,95046.34
2018-12-04T22:30:53.056Z,95043.77
2018-12-04T22:33:23.418Z,95038.61
2018-12-04T22:35:53.758Z,95039.55
2018-12-04T22:38:24.037Z,95043.41
2018-12-04T22:40:54.353Z,95043.09
2018-12-04T22:43:24.728Z,95045.41
2018-12-04T22:45:55.066Z,95046.78
2018-12-04T22:48:25.397Z,95043.79
2018-12-04T22:50:55.760Z,95045.69
2018-12-04T22:53:26.064Z,95046.48
2018-12-04T22:55:56.340Z,95049.50
2018-12-04T22:58:26.796Z,95054.19
2018-12-04T23:00:57.612Z,95051.00
2018-12-04T23:03:29.831Z,95048.92
2018-12-04T23:06:00.170Z,95046.92
2018-12-04T23:08:30.537Z,95053.58
2018-12-04T23:11:00.836Z,95046.81
2018-12-04T23:13:31.133Z,95051.70
2018-12-04T23:16:01.909Z,95052.88
2018-12-04T23:18:32.214Z,95055.01
2018-12-04T23:21:02.533Z,95054.27
2018-12-04T23:23:32.985Z,95058.08
2018-12-04T23:26:03.305Z,95050.77
2018-12-04T23:28:35.476Z,95061.77
2018-12-04T23:31:05.867Z,95064.64
2018-12-04T23:33:36.172Z,95066.28
2018-12-04T23:36:06.549Z,95065.04
2018-12-04T23:38:36.873Z,95065.47
2018-12-04T23:41:07.190Z,95070.94
2018-12-04T23:43:38.023Z,95068.82
2018-12-04T23:46:08.582Z,95071.64
2018-12-04T23:48:38.875Z,95069.84
2018-12-04T23:51:09.202Z,95071.02
2018-12-04T23:53:39.483Z,95078.23
2018-12-04T23:56:09.803Z,95080.61
2018-12-04T23:58:41.168Z,95084.07
